Time;durP1;ratioP1;P1;durP2;ratioP2;P2;SDS_P1;SDS_P2;PMS_P1;PMS_P2;Temp;Humidity;BMP_temperature;BMP_pressure;BME280_temperature;BME280_humidity;BME280_pressure;Samples;Min_cycle;Max_cycle;Signal;HPM_P1;HPM_P2
2021/09/27 00:02:19;;;;;;;9.47;7.80;;;;;;;14.62;100.00;100894.94;4985721;28;20694;-75
2021/09/27 00:04:46;;;;;;;10.73;8.10;;;;;;;14.61;100.00;100899.31;4974982;28;20210;-76
2021/09/27 00:07:12;;;;;;;11.07;8.17;;;;;;;14.58;100.00;100904.66;4979720;28;20221;-77
2021/09/27 00:09:39;;;;;;;9.53;8.27;;;;;;;14.55;100.00;100894.28;4975800;28;20243;-77
2021/09/27 00:12:08;;;;;;;8.77;7.70;;;;;;;14.51;100.00;100895.28;4971953;28;20214;-75
2021/09/27 00:14:35;;;;;;;11.70;8.30;;;;;;;14.49;100.00;100911.13;4977825;28;20201;-76
2021/09/27 00:17:03;;;;;;;9.30;8.07;;;;;;;14.44;100.00;100905.19;4986282;28;20308;-76
2021/09/27 00:19:29;;;;;;;10.23;8.53;;;;;;;14.45;100.00;100898.16;4985823;28;20219;-76
2021/09/27 00:21:56;;;;;;;11.07;8.70;;;;;;;14.41;100.00;100897.44;4988657;28;20209;-76
2021/09/27 00:24:22;;;;;;;12.40;9.13;;;;;;;14.43;100.00;100892.97;4983434;28;20215;-74
2021/09/27 00:26:49;;;;;;;10.93;8.40;;;;;;;14.42;100.00;100891.25;4983339;28;20321;-76
2021/09/27 00:29:15;;;;;;;10.67;8.67;;;;;;;14.42;100.00;100890.41;4984299;28;20317;-76
2021/09/27 00:31:43;;;;;;;10.80;8.77;;;;;;;14.42;100.00;100888.63;4982864;28;20209;-75
2021/09/27 00:34:10;;;;;;;11.03;9.13;;;;;;;14.42;100.00;100885.16;4980758;28;20213;-76
2021/09/27 00:36:36;;;;;;;9.70;8.70;;;;;;;14.41;100.00;100886.09;4976890;28;20229;-77
2021/09/27 00:39:04;;;;;;;10.33;8.67;;;;;;;14.40;100.00;100887.84;4976281;28;20206;-76
2021/09/27 00:41:32;;;;;;;11.67;9.10;;;;;;;14.40;100.00;100890.47;4976158;28;20229;-76
2021/09/27 00:43:58;;;;;;;10.13;8.47;;;;;;;14.36;100.00;100894.13;4982940;28;20208;-76
2021/09/27 00:46:27;;;;;;;10.93;8.37;;;;;;;14.32;100.00;100898.63;4977735;28;20212;-77
2021/09/27 00:48:55;;;;;;;12.23;9.37;;;;;;;14.35;100.00;100895.03;4984171;28;20205;-76
2021/09/27 00:51:25;;;;;;;12.43;9.60;;;;;;;14.35;100.00;100893.28;4980498;28;20222;-76
2021/09/27 00:53:55;;;;;;;11.27;9.20;;;;;;;14.34;100.00;100888.94;4986241;28;21108;-75
2021/09/27 00:56:23;;;;;;;10.73;8.90;;;;;;;14.34;100.00;100890.72;4985835;28;20873;-76
2021/09/27 00:58:52;;;;;;;12.63;9.10;;;;;;;14.33;100.00;100891.59;4987907;28;20201;-75
2021/09/27 01:01:21;;;;;;;10.07;8.40;;;;;;;14.36;100.00;100889.72;4989201;28;20244;-75
2021/09/27 01:03:49;;;;;;;11.00;9.20;;;;;;;14.37;100.00;100888.81;4977800;28;20240;-76
2021/09/27 01:06:30;;;;;;;11.83;8.87;;;;;;;14.36;100.00;100891.50;4987764;28;20202;-76
2021/09/27 01:09:09;;;;;;;10.40;8.87;;;;;;;14.36;100.00;100891.50;4986155;28;20686;-76
2021/09/27 01:11:53;;;;;;;12.20;9.60;;;;;;;14.40;100.00;100893.09;4992059;28;20306;-76
2021/09/27 01:14:34;;;;;;;10.97;9.27;;;;;;;14.39;100.00;100889.59;4987298;28;20206;-76
2021/09/27 01:17:08;;;;;;;11.20;9.57;;;;;;;14.38;100.00;100879.16;4986004;28;20225;-77
2021/09/27 01:20:08;;;;;;;12.30;8.67;;;;;;;14.38;100.00;100877.41;4993385;28;20302;-76
2021/09/27 01:22:59;;;;;;;11.27;8.67;;;;;;;14.38;100.00;100877.41;4982433;28;20252;-77
2021/09/27 01:25:49;;;;;;;12.37;9.10;;;;;;;14.36;100.00;100873.97;4987171;28;20224;-76
2021/09/27 01:28:40;;;;;;;10.87;9.13;;;;;;;14.35;100.00;100880.16;4988320;28;20202;-75
2021/09/27 01:31:31;;;;;;;11.70;9.03;;;;;;;14.34;100.00;100881.06;4982212;28;20233;-77
2021/09/27 01:34:08;;;;;;;11.60;9.40;;;;;;;14.36;100.00;100881.84;4987878;28;20205;-76
2021/09/27 01:36:42;;;;;;;11.33;9.13;;;;;;;14.40;100.00;100890.47;4987579;28;20597;-75
2021/09/27 01:39:13;;;;;;;11.03;9.17;;;;;;;14.41;100.00;100889.56;4974153;28;20777;-76
2021/09/27 01:41:47;;;;;;;11.50;9.10;;;;;;;14.44;100.00;100878.97;4985749;28;20205;-76
2021/09/27 01:44:24;;;;;;;11.93;8.70;;;;;;;14.46;100.00;100892.88;4984244;28;20216;-76
2021/09/27 01:46:55;;;;;;;11.17;8.50;;;;;;;14.46;100.00;100891.97;4985791;28;20207;-76
2021/09/27 01:49:28;;;;;;;9.70;8.17;;;;;;;14.49;100.00;100897.13;4985632;28;20217;-77
2021/09/27 01:52:12;;;;;;;10.13;8.80;;;;;;;14.49;100.00;100899.75;4982303;28;20575;-75
2021/09/27 01:54:44;;;;;;;9.50;8.07;;;;;;;14.50;100.00;100902.31;4978946;28;20205;-75
2021/09/27 01:57:17;;;;;;;10.93;8.57;;;;;;;14.53;100.00;100898.75;4986740;28;20217;-76
2021/09/27 01:59:51;;;;;;;10.60;8.27;;;;;;;14.53;100.00;100896.97;4985526;28;20655;-74
2021/09/27 02:02:23;;;;;;;9.73;8.10;;;;;;;14.55;100.00;100904.78;4982533;28;20211;-75
2021/09/27 02:05:01;;;;;;;9.67;8.07;;;;;;;14.57;100.00;100911.66;4984411;28;20614;-75
2021/09/27 02:07:31;;;;;;;9.20;7.77;;;;;;;14.57;100.00;100909.03;4989549;28;20225;-75
2021/09/27 02:10:02;;;;;;;10.33;8.30;;;;;;;14.57;100.00;100909.03;4986025;28;20594;-76
2021/09/27 02:13:16;;;;;;;9.70;7.77;;;;;;;14.58;100.00;100908.16;4985802;28;20237;-77
2021/09/27 02:15:48;;;;;;;9.43;7.70;;;;;;;14.58;100.00;100912.53;4986824;28;20206;-75
2021/09/27 02:18:22;;;;;;;8.37;7.47;;;;;;;14.57;100.00;100914.28;4984810;28;20231;-76
2021/09/27 02:20:54;;;;;;;10.27;8.00;;;;;;;14.57;100.00;100913.44;4987327;28;20235;-76
2021/09/27 02:23:25;;;;;;;9.40;7.60;;;;;;;14.54;100.00;100906.53;4986533;28;20697;-76
2021/09/27 02:25:52;;;;;;;10.07;7.67;;;;;;;14.55;100.00;100907.41;4978311;28;20203;-76
2021/09/27 02:28:22;;;;;;;9.47;7.63;;;;;;;14.53;100.00;100910.06;4981334;28;20201;-76
2021/09/27 02:30:55;;;;;;;8.90;7.30;;;;;;;14.50;100.00;100902.31;4986557;28;20226;-74
2021/09/27 02:33:29;;;;;;;9.37;7.60;;;;;;;14.48;100.00;100916.41;4985905;28;20209;-76
2021/09/27 02:36:03;;;;;;;9.10;7.83;;;;;;;14.44;100.00;100906.94;4984222;28;20671;-76
2021/09/27 02:38:39;;;;;;;9.93;7.03;;;;;;;14.42;100.00;100903.53;4988572;28;20237;-76
2021/09/27 02:41:18;;;;;;;10.90;7.43;;;;;;;14.38;100.00;100911.50;4974272;28;20248;-76
2021/09/27 02:43:45;;;;;;;9.80;7.70;;;;;;;14.35;100.00;100909.00;4982882;28;20215;-74
2021/09/27 02:46:12;;;;;;;9.70;7.67;;;;;;;14.34;100.00;100903.81;4981173;28;20243;-76
2021/09/27 02:48:40;;;;;;;8.80;7.43;;;;;;;14.32;100.00;100905.66;4985520;28;20299;-74
2021/09/27 02:51:11;;;;;;;10.43;7.40;;;;;;;14.26;100.00;100904.09;4979377;28;20217;-76
2021/09/27 02:53:38;;;;;;;9.43;7.23;;;;;;;14.23;100.00;100896.34;4978873;28;20210;-76
2021/09/27 02:56:17;;;;;;;9.07;7.77;;;;;;;14.18;100.00;100893.03;4989139;28;20204;-75
2021/09/27 02:58:49;;;;;;;10.37;7.67;;;;;;;14.16;100.00;100892.25;4978220;28;20218;-76
2021/09/27 03:01:21;;;;;;;9.13;7.27;;;;;;;14.12;100.00;100899.34;4983138;28;20247;-75
2021/09/27 03:04:01;;;;;;;10.33;7.43;;;;;;;14.10;100.00;100900.31;4978414;28;20203;-74
2021/09/27 03:06:39;;;;;;;8.67;7.20;;;;;;;14.08;100.00;100899.53;4986986;28;20205;-74
2021/09/27 03:09:11;;;;;;;11.47;7.60;;;;;;;14.03;100.00;100894.44;4984061;28;20209;-76
2021/09/27 03:12:12;;;;;;;9.40;7.20;;;;;;;13.95;100.00;100897.34;4977782;28;21003;-76
2021/09/27 03:15:14;;;;;;;8.53;7.33;;;;;;;13.88;100.00;100908.97;4917538;29;20325;-76
2021/09/27 03:17:52;;;;;;;8.57;7.10;;;;;;;13.82;100.00;100915.28;4978063;28;20232;-77
2021/09/27 03:20:45;;;;;;;11.47;7.27;;;;;;;13.72;100.00;100915.63;4980341;28;20597;-76
2021/09/27 03:23:18;;;;;;;9.63;7.10;;;;;;;13.69;100.00;100915.75;4984782;28;20297;-77
2021/09/27 03:25:54;;;;;;;9.10;7.03;;;;;;;13.62;100.00;100923.81;4982943;28;20209;-73
2021/09/27 03:28:28;;;;;;;8.40;6.97;;;;;;;13.53;100.00;100913.66;4990523;28;20366;-76
2021/09/27 03:31:05;;;;;;;8.20;6.93;;;;;;;13.46;100.00;100924.41;4982994;28;20813;-77
2021/09/27 03:33:39;;;;;;;10.03;7.23;;;;;;;13.41;100.00;100925.41;4986179;28;20204;-74
2021/09/27 03:36:20;;;;;;;10.03;7.57;;;;;;;13.36;100.00;100914.22;4981623;28;20231;-76
2021/09/27 03:38:54;;;;;;;8.10;6.90;;;;;;;13.31;100.00;100920.47;4985389;28;20236;-74
2021/09/27 03:41:28;;;;;;;8.93;7.23;;;;;;;13.22;100.00;100919.88;4985565;28;20300;-74
2021/09/27 03:44:14;;;;;;;9.43;7.47;;;;;;;13.19;100.00;100916.50;4976373;28;20212;-75
2021/09/27 03:46:53;;;;;;;8.57;6.73;;;;;;;13.11;100.00;100919.38;4971409;28;20213;-74
2021/09/27 03:49:26;;;;;;;7.43;6.57;;;;;;;13.07;100.00;100916.00;4974621;28;20767;-75
2021/09/27 03:51:57;;;;;;;8.83;6.83;;;;;;;13.02;100.00;100924.91;4988930;28;20215;-75
2021/09/27 03:54:30;;;;;;;8.80;7.47;;;;;;;13.00;100.00;100913.63;4983902;28;20205;-75
2021/09/27 03:57:01;;;;;;;9.67;7.87;;;;;;;12.99;100.00;100914.53;4982389;28;20208;-77
2021/09/27 03:59:34;;;;;;;9.70;7.33;;;;;;;12.93;100.00;100922.53;4983386;28;20209;-76
2021/09/27 04:02:08;;;;;;;11.40;7.63;;;;;;;12.91;100.00;100917.38;4982157;28;20300;-76
2021/09/27 04:04:50;;;;;;;10.77;7.97;;;;;;;12.86;100.00;100916.69;4984041;28;20210;-76
2021/09/27 04:07:26;;;;;;;11.87;7.50;;;;;;;12.86;100.00;100921.91;4977299;28;20212;-76
2021/09/27 04:10:07;;;;;;;10.70;8.43;;;;;;;12.83;100.00;100922.00;4980092;28;20226;-75
2021/09/27 04:12:42;;;;;;;9.03;7.60;;;;;;;12.84;100.00;100923.69;4980041;28;20731;-76
2021/09/27 04:15:19;;;;;;;10.80;8.30;;;;;;;12.82;100.00;100915.91;4982486;28;20678;-76
2021/09/27 04:18:03;;;;;;;11.97;8.30;;;;;;;12.83;100.00;100916.75;4980940;28;20226;-76
2021/09/27 04:20:42;;;;;;;11.83;8.13;;;;;;;12.86;100.00;100916.69;4982190;28;20261;-76
2021/09/27 04:23:19;;;;;;;11.83;8.57;;;;;;;12.87;100.00;100919.25;4971795;28;20609;-76
2021/09/27 04:25:56;;;;;;;12.03;8.93;;;;;;;12.90;100.00;100920.91;4987263;28;20240;-76
2021/09/27 04:28:51;;;;;;;14.23;8.87;;;;;;;12.91;100.00;100921.75;4983095;28;20202;-75
2021/09/27 04:31:27;;;;;;;9.43;8.43;;;;;;;12.92;100.00;100926.09;4977971;28;20240;-75
2021/09/27 04:34:11;;;;;;;11.50;7.93;;;;;;;12.93;100.00;100928.66;4987936;28;20213;-76
2021/09/27 04:36:41;;;;;;;10.07;8.70;;;;;;;12.95;100.00;100920.75;4988691;28;20208;-76
2021/09/27 04:39:12;;;;;;;9.67;7.77;;;;;;;12.96;100.00;100927.69;4983904;28;20227;-75
2021/09/27 04:42:08;;;;;;;9.37;7.70;;;;;;;12.99;100.00;100927.59;4987545;28;20234;-76
2021/09/27 04:44:49;;;;;;;10.03;8.27;;;;;;;13.01;100.00;100929.25;4976190;28;20220;-76
2021/09/27 04:47:24;;;;;;;11.10;7.70;;;;;;;13.04;100.00;100929.16;4978352;28;21734;-75
2021/09/27 04:50:07;;;;;;;11.77;8.67;;;;;;;13.07;100.00;100921.22;4976602;28;20242;-75
2021/09/27 04:52:48;;;;;;;11.03;8.47;;;;;;;13.11;100.00;100921.13;4985870;28;20253;-74
2021/09/27 04:55:26;;;;;;;11.60;8.20;;;;;;;13.14;100.00;100924.50;4990415;28;20436;-76
2021/09/27 04:58:04;;;;;;;10.03;8.40;;;;;;;13.20;100.00;100928.69;4980318;28;20729;-76
2021/09/27 05:00:39;;;;;;;10.63;8.57;;;;;;;13.19;100.00;100924.34;4985331;28;20857;-76
2021/09/27 05:03:24;;;;;;;10.93;8.57;;;;;;;13.21;100.00;100923.41;4981104;28;20212;-76
2021/09/27 05:06:15;;;;;;;10.77;8.20;;;;;;;13.23;100.00;100932.06;4984485;28;20212;-77
2021/09/27 05:09:00;;;;;;;10.17;8.20;;;;;;;13.27;100.00;100927.56;4988592;28;20313;-75
2021/09/27 05:11:41;;;;;;;11.27;8.20;;;;;;;13.30;100.00;100930.09;4976777;28;20680;-76
2021/09/27 05:14:34;;;;;;;9.70;8.00;;;;;;;13.34;100.00;100920.41;4980391;28;20462;-75
2021/09/27 05:17:13;;;;;;;9.87;7.67;;;;;;;13.34;100.00;100921.25;4959734;28;20701;-77
2021/09/27 05:20:14;;;;;;;10.07;8.00;;;;;;;13.35;100.00;100920.38;4972323;28;20227;-75
2021/09/27 05:22:50;;;;;;;9.00;7.80;;;;;;;13.37;100.00;100926.41;4959899;28;20597;-75
2021/09/27 05:25:36;;;;;;;9.53;7.63;;;;;;;13.36;100.00;100919.44;4986998;28;20735;-76
2021/09/27 05:28:16;;;;;;;9.80;7.80;;;;;;;13.37;100.00;100923.78;4988701;28;20296;-75
2021/09/27 05:31:07;;;;;;;10.00;7.97;;;;;;;13.39;100.00;100921.97;4984588;28;20327;-76
2021/09/27 05:33:42;;;;;;;10.10;7.00;;;;;;;13.39;100.00;100916.72;4981681;28;20271;-75
2021/09/27 05:36:36;;;;;;;10.67;7.70;;;;;;;13.42;100.00;100915.75;4991874;28;20207;-77
2021/09/27 05:39:13;;;;;;;9.57;7.73;;;;;;;13.44;100.00;100914.81;4978286;28;20236;-76
2021/09/27 05:41:57;;;;;;;11.03;8.43;;;;;;;13.49;100.00;100904.19;4986760;28;20291;-76
2021/09/27 05:44:41;;;;;;;11.67;9.63;;;;;;;13.52;100.00;100903.22;4979224;28;20212;-75
2021/09/27 05:47:20;;;;;;;13.77;8.70;;;;;;;13.54;100.00;100911.88;4983115;28;21567;-75
2021/09/27 05:49:57;;;;;;;11.33;8.63;;;;;;;13.57;100.00;100915.25;4983254;28;20221;-76
2021/09/27 05:52:33;;;;;;;10.90;8.87;;;;;;;13.61;100.00;100910.75;4979582;28;20770;-76
2021/09/27 05:55:05;;;;;;;12.97;9.77;;;;;;;13.64;100.00;100908.06;4988213;28;20208;-76
2021/09/27 05:57:44;;;;;;;13.93;10.07;;;;;;;13.68;100.00;100908.78;4981124;28;20209;-75
2021/09/27 06:00:19;;;;;;;13.33;9.60;;;;;;;13.73;100.00;100907.72;4975544;28;20255;-76
2021/09/27 06:03:05;;;;;;;10.37;9.07;;;;;;;13.79;100.00;100911.88;4973480;28;20777;-75
2021/09/27 06:05:43;;;;;;;13.63;9.93;;;;;;;13.86;100.00;100912.53;4982800;28;20288;-76
2021/09/27 06:08:16;;;;;;;14.50;9.83;;;;;;;13.95;100.00;100914.84;4982299;28;20201;-75
2021/09/27 06:10:47;;;;;;;15.10;10.60;;;;;;;14.00;100.00;100913.78;4976151;28;20243;-76
2021/09/27 06:13:20;;;;;;;12.50;10.10;;;;;;;14.09;100.00;100920.44;4986980;28;20208;-74
2021/09/27 06:15:51;;;;;;;17.17;11.33;;;;;;;14.18;100.00;100925.34;4977528;28;20370;-75
2021/09/27 06:18:32;;;;;;;15.57;11.97;;;;;;;14.30;100.00;100929.31;4980502;28;20233;-75
2021/09/27 06:21:10;;;;;;;16.97;11.50;;;;;;;14.41;100.00;100928.91;4978696;28;20588;-76
2021/09/27 06:23:58;;;;;;;14.97;11.27;;;;;;;14.51;100.00;100934.66;4983341;28;20209;-74
2021/09/27 06:26:27;;;;;;;14.93;11.43;;;;;;;14.58;100.00;100928.28;4988922;28;20205;-74
2021/09/27 06:29:01;;;;;;;17.13;12.20;;;;;;;14.67;100.00;100932.31;4972389;28;20209;-76
2021/09/27 06:31:33;;;;;;;13.70;11.03;;;;;;;14.72;100.00;100938.25;4984464;28;20229;-76
2021/09/27 06:34:10;;;;;;;13.30;10.80;;;;;;;14.79;100.00;100934.47;4977636;28;20216;-77
2021/09/27 06:36:38;;;;;;;15.13;10.27;;;;;;;14.85;100.00;100938.66;4977697;28;20221;-76
2021/09/27 06:39:11;;;;;;;15.20;9.30;;;;;;;14.93;100.00;100942.69;4968324;28;20218;-77
2021/09/27 06:41:40;;;;;;;13.00;10.67;;;;;;;14.99;100.00;100943.38;4972837;28;20222;-76
2021/09/27 06:44:12;;;;;;;11.23;9.93;;;;;;;15.03;100.00;100952.81;4980400;28;20270;-77
2021/09/27 06:46:39;;;;;;;12.57;10.47;;;;;;;15.05;100.00;100949.22;4970698;28;20213;-76
2021/09/27 06:49:07;;;;;;;13.93;9.67;;;;;;;15.10;100.00;100949.88;4983806;28;20544;-75
2021/09/27 06:51:36;;;;;;;14.70;10.30;;;;;;;15.12;100.00;100945.41;4982168;28;20239;-76
2021/09/27 06:54:02;;;;;;;12.83;9.83;;;;;;;15.14;100.00;100948.88;4983264;28;20253;-75
2021/09/27 06:56:28;;;;;;;12.63;9.97;;;;;;;15.20;100.00;100939.03;4984070;28;20213;-77
2021/09/27 06:58:55;;;;;;;12.67;10.00;;;;;;;15.26;100.00;100939.63;4976747;28;20230;-77
2021/09/27 07:01:21;;;;;;;12.20;9.93;;;;;;;15.30;100.00;100935.09;4985371;28;20228;-75
2021/09/27 07:03:48;;;;;;;12.03;10.10;;;;;;;15.35;100.00;100943.63;4980264;28;20225;-76
2021/09/27 07:06:16;;;;;;;15.43;9.80;;;;;;;15.41;100.00;100939.91;4982509;28;20208;-76
2021/09/27 07:08:42;;;;;;;12.47;9.60;;;;;;;15.46;100.00;100941.44;4989976;28;20286;-77
2021/09/27 07:11:08;;;;;;;16.20;10.20;;;;;;;15.52;100.00;100935.06;4988151;28;20265;-77
2021/09/27 07:13:35;;;;;;;13.00;9.83;;;;;;;15.55;100.00;100932.31;4984115;28;20205;-75
2021/09/27 07:16:01;;;;;;;12.27;10.07;;;;;;;15.62;100.00;100930.28;4981712;28;20198;-75
2021/09/27 07:18:28;;;;;;;13.73;10.13;;;;;;;15.68;100.00;100925.63;4981867;28;21077;-75
2021/09/27 07:20:58;;;;;;;16.23;9.83;;;;;;;15.76;100.00;100927.09;4985839;28;20225;-74
2021/09/27 07:23:26;;;;;;;12.50;9.70;;;;;;;15.82;100.00;100926.84;4981695;28;20205;-75
2021/09/27 07:25:53;;;;;;;13.40;9.70;;;;;;;15.84;100.00;100928.47;4983003;28;20209;-75
2021/09/27 07:28:21;;;;;;;11.47;9.27;;;;;;;15.96;100.00;100928.88;4982226;28;20285;-75
2021/09/27 07:30:50;;;;;;;11.73;9.97;;;;;;;16.01;100.00;100916.38;4989048;28;20261;-75
2021/09/27 07:33:17;;;;;;;12.70;9.70;;;;;;;16.11;100.00;100917.66;4986383;28;20215;-75
2021/09/27 07:35:44;;;;;;;13.10;9.30;;;;;;;16.13;100.00;100922.84;4970214;28;20225;-74
2021/09/27 07:38:11;;;;;;;13.87;9.77;;;;;;;16.22;100.00;100930.34;4978323;28;20220;-73
2021/09/27 07:40:39;;;;;;;10.57;8.90;;;;;;;16.29;100.00;100931.78;4982824;28;20225;-73
2021/09/27 07:43:07;;;;;;;17.20;9.40;;;;;;;16.39;100.00;100929.56;4981990;28;20397;-76
2021/09/27 07:45:36;;;;;;;10.80;9.33;;;;;;;16.47;100.00;100922.19;4980258;28;20312;-75
2021/09/27 07:48:03;;;;;;;10.47;9.20;;;;;;;16.54;100.00;100920.13;4974477;28;20678;-76
2021/09/27 07:50:31;;;;;;;10.40;8.77;;;;;;;16.61;100.00;100924.19;4977560;28;20804;-74
2021/09/27 07:52:57;;;;;;;11.37;8.70;;;;;;;16.73;100.00;100922.75;4982337;28;20205;-75
2021/09/27 07:55:23;;;;;;;13.83;9.30;;;;;;;16.79;100.00;100919.81;4979460;28;20566;-76
2021/09/27 07:57:51;;;;;;;13.97;10.30;;;;;;;16.88;100.00;100919.41;4982954;28;20818;-75
2021/09/27 08:00:19;;;;;;;15.20;9.50;;;;;;;16.94;100.00;100918.25;4979899;28;20236;-74
2021/09/27 08:02:46;;;;;;;10.90;9.60;;;;;;;16.98;100.00;100920.69;4978374;28;20198;-75
2021/09/27 08:05:16;;;;;;;11.60;9.43;;;;;;;17.02;100.00;100916.97;4977536;28;20217;-76
2021/09/27 08:07:42;;;;;;;10.77;8.53;;;;;;;17.08;100.00;100913.19;4983664;28;20211;-74
2021/09/27 08:10:11;;;;;;;11.10;8.63;;;;;;;17.13;100.00;100920.88;4981253;28;20221;-75
2021/09/27 08:12:37;;;;;;;10.70;8.87;;;;;;;17.22;100.00;100918.66;4983977;28;20650;-74
2021/09/27 08:15:09;;;;;;;11.70;8.97;;;;;;;17.34;100.00;100917.19;4969919;28;20830;-74
2021/09/27 08:17:35;;;;;;;10.60;8.20;;;;;;;17.42;100.00;100925.53;4966825;28;20210;-75
2021/09/27 08:20:04;;;;;;;12.50;9.07;;;;;;;17.47;100.00;100924.50;4969954;28;20233;-75
2021/09/27 08:22:30;;;;;;;10.07;8.70;;;;;;;17.51;100.00;100920.75;4978889;28;20209;-73
2021/09/27 08:24:57;;;;;;;14.00;9.37;;;;;;;17.59;100.00;100918.59;4980185;28;20211;-76
2021/09/27 08:27:23;;;;;;;9.73;8.53;;;;;;;17.72;100.00;100919.66;4981069;28;21863;-75
2021/09/27 08:29:50;;;;;;;9.90;8.13;;;;;;;17.83;100.00;100919.09;4983210;28;20221;-75
2021/09/27 08:32:17;;;;;;;11.00;8.90;;;;;;;17.84;99.38;100928.72;4979832;28;20592;-74
2021/09/27 08:34:45;;;;;;;9.47;8.40;;;;;;;17.98;99.29;100925.41;4975462;28;20957;-75
2021/09/27 08:37:11;;;;;;;13.47;9.23;;;;;;;18.08;97.26;100924.00;4981428;28;20205;-75
2021/09/27 08:39:40;;;;;;;13.53;8.30;;;;;;;18.14;96.83;100928.09;4966132;28;20264;-76
2021/09/27 08:42:11;;;;;;;11.50;8.50;;;;;;;18.24;95.87;100920.50;4980712;28;20263;-74
2021/09/27 08:44:47;;;;;;;10.10;8.40;;;;;;;18.31;95.16;100919.25;4978206;28;20205;-75
2021/09/27 08:47:21;;;;;;;10.93;8.40;;;;;;;18.39;94.81;100919.69;4983087;28;20285;-76
2021/09/27 08:49:54;;;;;;;13.17;9.13;;;;;;;18.45;94.36;100919.38;4974026;28;20228;-75
2021/09/27 08:52:23;;;;;;;10.33;8.70;;;;;;;18.66;96.44;100912.06;4982000;28;20202;-75
2021/09/27 08:54:52;;;;;;;10.60;8.47;;;;;;;18.80;95.45;100921.00;4974077;28;20296;-76
2021/09/27 08:57:34;;;;;;;8.87;7.97;;;;;;;18.88;93.20;100924.09;4971943;28;20369;-75
2021/09/27 09:00:08;;;;;;;8.73;7.83;;;;;;;18.99;93.18;100919.06;4975535;28;20232;-76
2021/09/27 09:02:53;;;;;;;10.57;8.93;;;;;;;19.05;92.44;100924.00;4981200;28;20251;-75
2021/09/27 09:05:24;;;;;;;9.80;8.20;;;;;;;19.15;93.29;100918.19;4975627;28;20239;-76
2021/09/27 09:07:56;;;;;;;11.30;7.93;;;;;;;19.30;93.46;100912.03;4983718;28;20220;-75
2021/09/27 09:10:35;;;;;;;10.37;7.80;;;;;;;19.32;90.55;100918.06;4988145;28;20236;-76
2021/09/27 09:13:04;;;;;;;9.20;7.97;;;;;;;19.33;89.67;100919.78;4976513;28;20220;-75
2021/09/27 09:15:31;;;;;;;11.90;7.53;;;;;;;19.39;90.11;100921.22;4992969;28;20465;-75
2021/09/27 09:18:03;;;;;;;7.57;6.87;;;;;;;19.49;91.17;100912.63;4983375;28;20205;-75
2021/09/27 09:20:45;;;;;;;10.10;8.23;;;;;;;19.57;91.20;100913.97;4988624;28;20752;-76
2021/09/27 09:23:17;;;;;;;9.33;7.47;;;;;;;19.62;89.51;100919.84;4984506;28;20832;-76
2021/09/27 09:25:44;;;;;;;8.03;7.20;;;;;;;19.70;89.92;100914.97;4977361;28;20213;-76
2021/09/27 09:28:12;;;;;;;9.00;7.17;;;;;;;19.75;89.70;100915.56;4987662;28;20209;-75
2021/09/27 09:30:47;;;;;;;8.47;7.33;;;;;;;19.80;89.87;100913.47;4984915;28;20237;-75
2021/09/27 09:33:37;;;;;;;9.03;7.60;;;;;;;19.87;86.34;100927.19;4978735;28;20289;-75
2021/09/27 09:36:04;;;;;;;9.70;7.50;;;;;;;19.90;86.20;100928.81;4982892;28;20609;-74
2021/09/27 09:38:34;;;;;;;9.20;7.70;;;;;;;20.02;85.59;100922.78;4990261;28;20213;-76
2021/09/27 09:41:00;;;;;;;9.57;7.47;;;;;;;19.94;85.15;100915.28;4968985;28;20236;-74
2021/09/27 09:43:30;;;;;;;11.07;8.30;;;;;;;19.94;85.22;100925.88;4982310;28;20240;-74
2021/09/27 09:46:04;;;;;;;11.97;8.03;;;;;;;20.01;86.93;100918.41;4986708;28;20209;-74
2021/09/27 09:48:31;;;;;;;8.37;7.47;;;;;;;20.12;86.38;100915.09;4986294;28;20215;-76
2021/09/27 09:51:17;;;;;;;9.83;7.73;;;;;;;20.12;83.72;100921.28;4986000;28;20221;-76
2021/09/27 09:54:00;;;;;;;13.33;8.87;;;;;;;20.10;83.18;100909.06;4983253;28;20208;-75
2021/09/27 09:56:32;;;;;;;9.07;7.70;;;;;;;20.16;83.98;100912.19;4991232;28;20201;-74
2021/09/27 09:59:00;;;;;;;10.77;8.23;;;;;;;20.23;84.87;100915.31;4981610;28;20278;-75
2021/09/27 10:01:29;;;;;;;9.40;8.13;;;;;;;20.22;83.65;100908.31;4982189;28;20702;-76
2021/09/27 10:04:01;;;;;;;10.13;8.77;;;;;;;20.19;82.56;100911.13;4982866;28;20202;-74
2021/09/27 10:06:34;;;;;;;10.07;8.33;;;;;;;20.26;83.27;100911.59;4986831;28;20205;-75
2021/09/27 10:09:04;;;;;;;10.03;7.93;;;;;;;20.30;83.45;100908.69;4985526;28;20197;-76
2021/09/27 10:11:35;;;;;;;11.73;7.80;;;;;;;20.39;83.70;100902.81;4976651;28;20225;-75
2021/09/27 10:14:18;;;;;;;8.90;8.00;;;;;;;20.52;81.44;100902.88;4982477;28;20339;-74
2021/09/27 10:16:47;;;;;;;10.00;8.37;;;;;;;20.46;81.08;100908.56;4985113;28;20206;-75
2021/09/27 10:19:22;;;;;;;9.77;8.03;;;;;;;20.42;81.02;100907.03;4978411;28;20226;-75
2021/09/27 10:21:56;;;;;;;9.70;7.83;;;;;;;20.52;80.73;100899.38;4980986;28;20211;-74
2021/09/27 10:24:32;;;;;;;10.70;8.10;;;;;;;20.59;81.03;100901.53;4980877;28;20233;-75
2021/09/27 10:27:01;;;;;;;11.07;8.37;;;;;;;20.68;80.05;100908.06;4980915;28;20208;-75
2021/09/27 10:29:30;;;;;;;8.33;7.27;;;;;;;20.78;80.42;100908.34;4978105;28;20277;-75
2021/09/27 10:31:58;;;;;;;11.17;8.43;;;;;;;20.90;81.76;100915.50;4960000;28;20220;-73
2021/09/27 10:34:31;;;;;;;9.17;7.83;;;;;;;20.99;79.95;100919.34;4970083;28;20209;-73
2021/09/27 10:37:07;;;;;;;11.00;8.20;;;;;;;21.07;78.31;100916.19;4978485;28;20213;-73
2021/09/27 10:39:34;;;;;;;8.63;7.40;;;;;;;21.08;83.73;100905.47;4977558;28;20232;-75
2021/09/27 10:42:03;;;;;;;8.23;7.17;;;;;;;21.16;80.23;100907.66;4966798;28;20206;-74
2021/09/27 10:44:35;;;;;;;10.68;7.78;;;;;;;21.25;82.71;100907.03;4968409;28;20201;-75
2021/09/27 10:47:08;;;;;;;11.30;8.33;;;;;;;21.22;80.30;100915.19;4978192;28;20212;-74
2021/09/27 10:49:41;;;;;;;9.27;7.68;;;;;;;21.31;78.85;100917.22;4973723;28;20201;-75
2021/09/27 10:52:21;;;;;;;9.23;8.07;;;;;;;21.43;78.51;100918.19;4980236;28;20209;-74
2021/09/27 10:54:57;;;;;;;10.65;7.85;;;;;;;21.47;79.85;100914.41;4978380;28;20216;-75
2021/09/27 10:57:35;;;;;;;8.88;7.38;;;;;;;21.53;78.42;100916.66;4975075;28;20209;-75
2021/09/27 11:00:13;;;;;;;8.70;7.00;;;;;;;21.58;75.99;100928.75;4979963;28;20892;-75
2021/09/27 11:02:43;;;;;;;9.98;7.53;;;;;;;21.54;75.89;100921.00;4980953;28;20296;-75
2021/09/27 11:05:15;;;;;;;8.82;7.32;;;;;;;21.58;79.53;100924.28;4978104;28;20701;-75
2021/09/27 11:07:47;;;;;;;8.68;7.65;;;;;;;21.64;80.39;100918.59;4978561;28;20208;-75
2021/09/27 11:10:21;;;;;;;10.90;8.40;;;;;;;21.55;81.77;100922.72;4974085;28;20224;-76
2021/09/27 11:12:51;;;;;;;9.20;8.13;;;;;;;21.49;80.14;100924.91;4979323;28;20209;-73
2021/09/27 11:15:24;;;;;;;9.55;7.85;;;;;;;21.55;81.84;100909.44;4976135;28;20217;-74
2021/09/27 11:18:05;;;;;;;8.68;7.47;;;;;;;21.59;81.86;100912.75;4981295;28;20221;-74
2021/09/27 11:20:58;;;;;;;9.50;7.72;;;;;;;21.55;81.62;100911.25;4978647;28;20263;-73
2021/09/27 11:23:34;;;;;;;10.07;7.57;;;;;;;21.65;81.26;100922.09;4978256;28;20209;-74
2021/09/27 11:26:30;;;;;;;8.90;6.82;;;;;;;21.63;81.99;100918.69;4970049;28;20238;-74
2021/09/27 11:29:19;;;;;;;9.05;7.22;;;;;;;21.61;82.36;100923.25;4973981;28;20205;-73
2021/09/27 11:31:46;;;;;;;9.88;7.70;;;;;;;21.50;79.80;100918.69;4975654;28;20332;-75
2021/09/27 11:34:31;;;;;;;8.05;7.13;;;;;;;21.57;81.35;100924.44;4973202;28;20208;-76
2021/09/27 11:37:18;;;;;;;9.60;7.72;;;;;;;21.62;80.96;100916.97;4963240;28;20216;-75
2021/09/27 11:39:48;;;;;;;9.18;7.85;;;;;;;21.62;80.07;100917.84;4968350;28;20390;-75
2021/09/27 11:42:31;;;;;;;8.57;7.45;;;;;;;21.67;79.55;100922.81;4960639;28;20207;-73
2021/09/27 11:45:18;;;;;;;8.38;7.50;;;;;;;21.75;79.51;100918.69;4975117;28;20215;-75
2021/09/27 11:47:58;;;;;;;8.25;7.07;;;;;;;21.89;80.79;100908.94;4978706;28;20220;-75